Decoded Metar for KBFD (BRADFORD in PA, USA) (IATA:BFD) | Meteo·Mobile Aviation Weather
aviador You're here:

KBFD Decoded Metar

BRADFORD in PA, USA
Report Time2018-09-24 12:53:00
UTC Time2018-09-24 13:24:34
Flight Rules ifr IFR
Wind140° at 09 kt
W.Decomp.*RWY 14: 8.8 kt HW 1.7 kt RCW
RWY 23: 1.7 kt HW 8.8 kt LCW
W.Rank140° ranks 5
Current wind is above 140° avg. (6.6)
Visibility9999 m
Phenomena:N/A
Clouds:Overcast 008 Hf
Expected CloudBase > 400 ft AGL from Temp-Dew spread
Ceiling800 ft
Temp13°C (ISA +2)
Dew Point12°C (94% RH)
AAT10.4°C
QNH1028 hPa
Density Alt2,077 ft
Elevation2,123 ft
Report Wrong Elevation
Raw Report
KBFD 241253Z AUTO 14009KT 10SM OVC008 13/12 A3036 RMK AO2 SLP281
T01280117=

Extra information for KBFD:More info

Metar Taf Metar & Taf Last 4 Metars F.Rules Stats Wind Profile Meteogram Temp Stats Airport Information Weather charts Add Link Nearby VenuesMetar ALERT Operation Metar Decoded Social comments

AIRNAV info for KBFD